Time;durP1;ratioP1;P1;durP2;ratioP2;P2;SDS_P1;SDS_P2;PMS_P1;PMS_P2;Temp;Humidity;BMP_temperature;BMP_pressure;BME280_temperature;BME280_humidity;BME280_pressure;Samples;Min_cycle;Max_cycle;Signal;HPM_P1;HPM_P2
2022/11/26 00:00:42;;;;;;;4.18;2.10;;;;;;;;;;5072014;28;20486;-43
2022/11/26 00:03:12;;;;;;;5.20;2.03;;;;;;;;;;5073686;28;20028;-43
2022/11/26 00:05:38;;;;;;;3.15;1.35;;;;;;;;;;5067517;28;20132;-42
2022/11/26 00:08:13;;;;;;;3.67;2.20;;;;;;;;;;5073545;28;20024;-43
2022/11/26 00:10:39;;;;;;;2.60;1.60;;;;;;;;;;5071767;28;20033;-43
2022/11/26 00:13:13;;;;;;;3.35;1.20;;;;;;;;;;5072492;28;20056;-43
2022/11/26 00:15:39;;;;;;;3.42;1.73;;;;;;;;;;5072086;28;20058;-43
2022/11/26 00:18:05;;;;;;;2.40;1.20;;;;;;;;;;5070890;27;20047;-43
2022/11/26 00:20:31;;;;;;;2.75;1.65;;;;;;;;;;5074953;28;20025;-43
2022/11/26 00:23:00;;;;;;;2.17;1.75;;;;;;;;;;5071981;28;20551;-43
2022/11/26 00:25:51;;;;;;;3.70;1.95;;;;;;;;;;5069626;28;20041;-43
2022/11/26 00:28:42;;;;;;;3.75;1.90;;;;;;;;;;5067894;28;20037;-43
2022/11/26 00:31:13;;;;;;;2.25;1.42;;;;;;;;;;5070298;28;20033;-43
2022/11/26 00:33:39;;;;;;;2.33;1.30;;;;;;;;;;5076449;28;20518;-44
2022/11/26 00:36:25;;;;;;;3.05;1.30;;;;;;;;;;5080074;28;20040;-43
2022/11/26 00:38:56;;;;;;;4.45;1.70;;;;;;;;;;5072148;28;20118;-43
2022/11/26 00:41:24;;;;;;;2.75;1.83;;;;;;;;;;5070904;28;20099;-43
2022/11/26 00:43:50;;;;;;;3.25;1.67;;;;;;;;;;5083705;28;20035;-43
2022/11/26 00:46:18;;;;;;;3.33;1.70;;;;;;;;;;5086475;28;20028;-46
2022/11/26 00:48:44;;;;;;;3.88;1.50;;;;;;;;;;5071754;28;20425;-43
2022/11/26 00:51:13;;;;;;;3.67;1.75;;;;;;;;;;5071062;28;20025;-43
2022/11/26 00:53:39;;;;;;;4.93;1.58;;;;;;;;;;5066064;28;20017;-43
2022/11/26 00:56:05;;;;;;;3.58;1.55;;;;;;;;;;5070539;28;20028;-43
2022/11/26 00:58:31;;;;;;;4.75;1.70;;;;;;;;;;5068231;28;20533;-43
2022/11/26 01:00:58;;;;;;;2.75;1.58;;;;;;;;;;5070940;28;20096;-43
2022/11/26 01:03:25;;;;;;;3.10;1.50;;;;;;;;;;5074224;28;20127;-43
2022/11/26 01:05:52;;;;;;;2.75;1.52;;;;;;;;;;5069350;28;20035;-43
2022/11/26 01:08:19;;;;;;;2.90;1.35;;;;;;;;;;5070579;28;20032;-45
2022/11/26 01:10:46;;;;;;;2.78;1.30;;;;;;;;;;5075704;28;20028;-43
2022/11/26 01:13:11;;;;;;;2.97;1.42;;;;;;;;;;5074938;28;20020;-43
2022/11/26 01:15:37;;;;;;;3.75;2.08;;;;;;;;;;5069025;28;20035;-43
2022/11/26 01:21:05;;;;;;;2.03;1.70;;;;;;;;;;5071856;27;20060;-43
2022/11/26 01:23:31;;;;;;;3.13;1.38;;;;;;;;;;5071814;28;20040;-45
2022/11/26 01:25:57;;;;;;;2.28;1.38;;;;;;;;;;5068693;28;20037;-43
2022/11/26 01:28:23;;;;;;;3.70;1.63;;;;;;;;;;5070453;28;20046;-43
2022/11/26 01:30:49;;;;;;;4.00;1.55;;;;;;;;;;5074541;28;20086;-43
2022/11/26 01:33:15;;;;;;;3.05;1.40;;;;;;;;;;5075419;28;20031;-46
2022/11/26 01:35:41;;;;;;;3.50;1.55;;;;;;;;;;5072257;28;20050;-46
2022/11/26 01:38:08;;;;;;;4.07;1.50;;;;;;;;;;5071046;28;20029;-43
2022/11/26 01:40:35;;;;;;;4.25;1.58;;;;;;;;;;5069808;28;20028;-43
2022/11/26 01:43:13;;;;;;;3.53;1.60;;;;;;;;;;5072279;28;20630;-43
2022/11/26 01:45:39;;;;;;;3.15;1.52;;;;;;;;;;5050093;28;20074;-43
2022/11/26 01:48:20;;;;;;;3.08;1.35;;;;;;;;;;5062781;28;20029;-43
2022/11/26 01:50:49;;;;;;;2.47;1.42;;;;;;;;;;5072851;28;20052;-43
2022/11/26 01:53:18;;;;;;;2.58;1.85;;;;;;;;;;5072192;28;20024;-46
2022/11/26 01:55:47;;;;;;;2.33;1.10;;;;;;;;;;5068920;28;20025;-43
2022/11/26 01:58:16;;;;;;;1.95;1.08;;;;;;;;;;5070186;28;20104;-46
2022/11/26 02:00:42;;;;;;;2.97;1.60;;;;;;;;;;5073313;28;20036;-43
2022/11/26 02:03:09;;;;;;;2.50;1.10;;;;;;;;;;5077069;28;20033;-43
2022/11/26 02:05:39;;;;;;;3.28;1.33;;;;;;;;;;5073049;28;20639;-43
2022/11/26 02:08:05;;;;;;;3.15;1.20;;;;;;;;;;5070789;28;20025;-43
2022/11/26 02:10:31;;;;;;;3.20;1.40;;;;;;;;;;5068506;28;20031;-43
2022/11/26 02:12:57;;;;;;;2.17;1.30;;;;;;;;;;5084242;28;20021;-43
2022/11/26 02:15:25;;;;;;;2.33;1.50;;;;;;;;;;5068362;28;20032;-43
2022/11/26 02:17:59;;;;;;;2.88;1.38;;;;;;;;;;5073475;28;20132;-43
2022/11/26 02:20:32;;;;;;;2.70;1.25;;;;;;;;;;5071767;28;20386;-43
2022/11/26 02:23:24;;;;;;;2.67;1.10;;;;;;;;;;5071236;28;20028;-43
2022/11/26 02:26:06;;;;;;;2.30;1.08;;;;;;;;;;5064458;28;20041;-43
2022/11/26 02:28:32;;;;;;;3.45;1.27;;;;;;;;;;5071696;28;20906;-43
2022/11/26 02:31:02;;;;;;;3.03;1.50;;;;;;;;;;5076207;28;20066;-43
2022/11/26 02:33:51;;;;;;;3.35;1.05;;;;;;;;;;5073376;28;20108;-43
2022/11/26 02:36:33;;;;;;;1.60;1.17;;;;;;;;;;5062317;28;20091;-44
2022/11/26 02:39:10;;;;;;;2.55;1.35;;;;;;;;;;5076385;28;20067;-43
2022/11/26 02:41:43;;;;;;;1.90;1.10;;;;;;;;;;5073151;28;20036;-43
2022/11/26 02:44:09;;;;;;;2.70;1.60;;;;;;;;;;5073167;28;20036;-43
2022/11/26 02:46:37;;;;;;;2.70;1.48;;;;;;;;;;5073635;28;20092;-43
2022/11/26 02:49:03;;;;;;;2.03;1.27;;;;;;;;;;5074508;28;20427;-43
2022/11/26 02:51:29;;;;;;;3.20;1.13;;;;;;;;;;5077202;28;20012;-43
2022/11/26 02:53:56;;;;;;;2.40;1.40;;;;;;;;;;5070911;28;20104;-43
2022/11/26 02:56:24;;;;;;;2.53;1.30;;;;;;;;;;5081393;28;20059;-43
2022/11/26 02:58:51;;;;;;;2.95;1.20;;;;;;;;;;5066446;28;20078;-43
2022/11/26 03:01:28;;;;;;;2.42;1.50;;;;;;;;;;5062284;28;20021;-44
2022/11/26 03:03:54;;;;;;;3.88;1.40;;;;;;;;;;5073628;28;20039;-43
2022/11/26 03:06:21;;;;;;;2.13;1.20;;;;;;;;;;5066993;28;20035;-43
2022/11/26 03:08:47;;;;;;;2.15;1.05;;;;;;;;;;5073907;28;20029;-43
2022/11/26 03:11:13;;;;;;;2.92;1.58;;;;;;;;;;5079844;28;20512;-46
2022/11/26 03:13:39;;;;;;;2.40;1.38;;;;;;;;;;5072778;28;20040;-43
2022/11/26 03:16:05;;;;;;;3.63;1.25;;;;;;;;;;5074670;28;20026;-44
2022/11/26 03:18:31;;;;;;;3.38;1.30;;;;;;;;;;5071848;28;20024;-43
2022/11/26 03:23:48;;;;;;;1.67;1.00;;;;;;;;;;5063137;28;20516;-43
2022/11/26 03:26:14;;;;;;;2.33;1.33;;;;;;;;;;5052966;28;20107;-46
2022/11/26 03:28:40;;;;;;;2.45;1.20;;;;;;;;;;5064667;28;20044;-43
2022/11/26 03:31:06;;;;;;;2.63;1.27;;;;;;;;;;5065381;28;20029;-44
2022/11/26 03:33:32;;;;;;;2.33;1.00;;;;;;;;;;5061799;28;20087;-43
2022/11/26 03:35:58;;;;;;;2.65;1.10;;;;;;;;;;5057516;28;20099;-43
2022/11/26 03:38:24;;;;;;;4.05;1.35;;;;;;;;;;5066943;28;20029;-43
2022/11/26 03:41:01;;;;;;;1.38;0.88;;;;;;;;;;5059247;28;20494;-43
2022/11/26 03:43:27;;;;;;;2.92;1.30;;;;;;;;;;5054870;28;20036;-43
2022/11/26 03:45:53;;;;;;;4.75;1.40;;;;;;;;;;5058368;28;20367;-43
2022/11/26 03:48:19;;;;;;;2.22;1.35;;;;;;;;;;5067031;28;20111;-43
2022/11/26 03:50:45;;;;;;;2.85;1.67;;;;;;;;;;5064064;28;20099;-43
2022/11/26 03:53:11;;;;;;;3.40;1.33;;;;;;;;;;5063514;28;20020;-44
2022/11/26 03:55:37;;;;;;;1.80;1.20;;;;;;;;;;5053804;28;20052;-43
2022/11/26 03:58:03;;;;;;;3.85;1.40;;;;;;;;;;5066141;28;20035;-43
2022/11/26 04:00:29;;;;;;;3.78;1.23;;;;;;;;;;5058762;28;20033;-43
2022/11/26 04:02:55;;;;;;;1.58;0.93;;;;;;;;;;5068772;28;20044;-43
2022/11/26 04:05:21;;;;;;;2.40;1.60;;;;;;;;;;5054964;28;20075;-43
2022/11/26 04:07:47;;;;;;;3.47;1.45;;;;;;;;;;5064315;28;20032;-43
2022/11/26 04:10:13;;;;;;;2.65;1.05;;;;;;;;;;5060246;28;20029;-46
2022/11/26 04:12:39;;;;;;;1.63;1.08;;;;;;;;;;5064921;28;20029;-43
2022/11/26 04:15:05;;;;;;;2.42;1.08;;;;;;;;;;5057933;28;20056;-43
2022/11/26 04:17:31;;;;;;;2.65;1.10;;;;;;;;;;5068898;28;20043;-43
2022/11/26 04:19:57;;;;;;;3.55;1.85;;;;;;;;;;5066707;28;20024;-43
2022/11/26 04:22:23;;;;;;;2.92;1.02;;;;;;;;;;5059092;28;20057;-44
2022/11/26 04:24:49;;;;;;;1.90;1.27;;;;;;;;;;5066895;28;20029;-45
2022/11/26 04:27:15;;;;;;;3.65;1.20;;;;;;;;;;5059721;28;20406;-46
2022/11/26 04:29:41;;;;;;;2.40;1.00;;;;;;;;;;5061709;28;20095;-43
2022/11/26 04:32:07;;;;;;;2.15;1.00;;;;;;;;;;5067105;28;20029;-43
2022/11/26 04:34:33;;;;;;;1.70;0.98;;;;;;;;;;5067896;28;20103;-43
2022/11/26 04:36:59;;;;;;;3.65;1.17;;;;;;;;;;5056686;28;20095;-44
2022/11/26 04:39:25;;;;;;;2.42;1.20;;;;;;;;;;5070009;28;20032;-43
2022/11/26 04:41:51;;;;;;;3.17;1.63;;;;;;;;;;5069277;28;20111;-43
2022/11/26 04:44:17;;;;;;;3.38;1.52;;;;;;;;;;5068359;28;20032;-46
2022/11/26 04:46:42;;;;;;;1.67;1.05;;;;;;;;;;5062443;28;20037;-43
2022/11/26 04:49:08;;;;;;;2.00;1.05;;;;;;;;;;5066801;28;20424;-43
2022/11/26 04:51:34;;;;;;;2.97;1.35;;;;;;;;;;5056882;28;20101;-43
2022/11/26 04:54:00;;;;;;;1.85;0.98;;;;;;;;;;5058789;28;20021;-43
2022/11/26 04:56:26;;;;;;;1.38;0.90;;;;;;;;;;5063307;28;20032;-43
2022/11/26 04:58:52;;;;;;;1.85;1.08;;;;;;;;;;5071087;28;20485;-43
2022/11/26 05:01:18;;;;;;;3.58;1.10;;;;;;;;;;5066779;28;20031;-43
2022/11/26 05:03:44;;;;;;;2.70;1.42;;;;;;;;;;5067693;28;20035;-43
2022/11/26 05:06:10;;;;;;;3.08;1.73;;;;;;;;;;5067711;28;20033;-43
2022/11/26 05:08:36;;;;;;;1.90;1.10;;;;;;;;;;5065631;28;20889;-44
2022/11/26 05:11:02;;;;;;;3.00;1.73;;;;;;;;;;5067316;28;20079;-43
2022/11/26 05:13:29;;;;;;;1.58;1.23;;;;;;;;;;5068521;28;20032;-43
2022/11/26 05:15:55;;;;;;;2.35;1.15;;;;;;;;;;5065460;28;20043;-43
2022/11/26 05:18:21;;;;;;;2.95;1.13;;;;;;;;;;5065497;28;20025;-43
2022/11/26 05:20:47;;;;;;;1.13;0.90;;;;;;;;;;5066107;28;20673;-44
2022/11/26 05:23:13;;;;;;;1.90;0.90;;;;;;;;;;5069610;28;20114;-46
2022/11/26 05:25:39;;;;;;;2.05;1.02;;;;;;;;;;5067504;28;20040;-45
2022/11/26 05:28:05;;;;;;;1.35;1.10;;;;;;;;;;5064354;28;21639;-43
2022/11/26 05:30:31;;;;;;;2.80;1.10;;;;;;;;;;5068939;28;20074;-43
2022/11/26 05:32:57;;;;;;;2.65;1.20;;;;;;;;;;5069994;28;20028;-43
2022/11/26 05:35:23;;;;;;;2.15;1.20;;;;;;;;;;5067984;28;20055;-43
2022/11/26 05:37:49;;;;;;;3.38;1.35;;;;;;;;;;5069156;28;20083;-43
2022/11/26 05:40:15;;;;;;;3.00;1.58;;;;;;;;;;5071359;28;20453;-46
2022/11/26 05:42:42;;;;;;;3.40;1.30;;;;;;;;;;5068886;28;20028;-43
2022/11/26 05:45:08;;;;;;;1.40;1.00;;;;;;;;;;5069625;28;20060;-43
2022/11/26 05:47:34;;;;;;;3.97;1.10;;;;;;;;;;5065049;28;20036;-43
2022/11/26 05:50:00;;;;;;;2.92;0.90;;;;;;;;;;5070838;28;20551;-43
2022/11/26 05:52:26;;;;;;;1.90;1.02;;;;;;;;;;5069744;28;20147;-43
2022/11/26 05:54:52;;;;;;;3.22;1.58;;;;;;;;;;5069804;28;20052;-43
2022/11/26 05:57:18;;;;;;;2.05;1.17;;;;;;;;;;5066880;28;20032;-44
2022/11/26 05:59:45;;;;;;;2.40;1.00;;;;;;;;;;5069614;28;20028;-43
2022/11/26 06:02:11;;;;;;;4.68;1.40;;;;;;;;;;5069315;28;20032;-43
2022/11/26 06:04:37;;;;;;;3.05;1.13;;;;;;;;;;5075106;28;20085;-44
2022/11/26 06:07:03;;;;;;;2.30;1.00;;;;;;;;;;5068586;28;20077;-43
2022/11/26 06:09:29;;;;;;;1.95;1.08;;;;;;;;;;5077072;28;20024;-43
2022/11/26 06:11:55;;;;;;;2.92;1.33;;;;;;;;;;5073023;28;20021;-43
2022/11/26 06:14:21;;;;;;;2.38;1.58;;;;;;;;;;5072553;28;20039;-43
2022/11/26 06:16:47;;;;;;;2.03;1.00;;;;;;;;;;5070873;28;20031;-43
2022/11/26 06:19:13;;;;;;;2.50;0.80;;;;;;;;;;5073230;28;20028;-46
2022/11/26 06:21:39;;;;;;;2.53;0.95;;;;;;;;;;5071689;28;20049;-46
2022/11/26 06:24:05;;;;;;;2.83;1.05;;;;;;;;;;5072102;28;20170;-43
2022/11/26 06:26:31;;;;;;;2.72;1.20;;;;;;;;;;5065203;28;20025;-43
2022/11/26 06:28:57;;;;;;;2.50;0.90;;;;;;;;;;5069126;28;20021;-44
2022/11/26 06:31:23;;;;;;;2.25;1.13;;;;;;;;;;5068848;28;20024;-43
2022/11/26 06:33:52;;;;;;;2.83;0.95;;;;;;;;;;5071348;28;20021;-43
2022/11/26 06:36:18;;;;;;;2.20;1.13;;;;;;;;;;5071304;28;20020;-43
2022/11/26 06:38:44;;;;;;;1.65;0.80;;;;;;;;;;5072216;28;20021;-43
2022/11/26 06:41:10;;;;;;;3.72;1.20;;;;;;;;;;5068079;28;20024;-43
2022/11/26 06:43:36;;;;;;;1.58;1.05;;;;;;;;;;5072381;28;20027;-43
2022/11/26 06:46:04;;;;;;;2.30;0.82;;;;;;;;;;5070404;28;20032;-43
2022/11/26 06:48:30;;;;;;;2.03;0.95;;;;;;;;;;5069049;28;20119;-43
2022/11/26 06:50:56;;;;;;;1.60;1.00;;;;;;;;;;5071363;28;20027;-43
2022/11/26 06:53:22;;;;;;;2.83;1.40;;;;;;;;;;5071189;28;20496;-44
2022/11/26 06:55:49;;;;;;;2.78;1.00;;;;;;;;;;5069788;28;20029;-44
2022/11/26 06:58:15;;;;;;;3.05;1.20;;;;;;;;;;5071050;28;20017;-46
2022/11/26 07:00:41;;;;;;;1.50;1.10;;;;;;;;;;5070765;28;20028;-43
2022/11/26 07:03:07;;;;;;;2.65;1.02;;;;;;;;;;5071940;28;20040;-43
2022/11/26 07:05:34;;;;;;;3.55;1.58;;;;;;;;;;5068867;28;20028;-43
2022/11/26 07:08:00;;;;;;;2.00;1.00;;;;;;;;;;5070876;28;20034;-43
2022/11/26 07:10:26;;;;;;;2.63;0.95;;;;;;;;;;5068855;28;20035;-43
2022/11/26 07:12:52;;;;;;;2.40;1.10;;;;;;;;;;5071039;28;20024;-43
2022/11/26 07:15:17;;;;;;;1.98;0.77;;;;;;;;;;5068016;28;20033;-46
2022/11/26 07:17:43;;;;;;;3.17;0.95;;;;;;;;;;5072103;28;20031;-43
2022/11/26 07:20:10;;;;;;;3.60;0.90;;;;;;;;;;5064396;28;20032;-43
2022/11/26 07:22:36;;;;;;;3.63;1.08;;;;;;;;;;5069637;28;20107;-43
2022/11/26 07:25:02;;;;;;;4.40;1.40;;;;;;;;;;5071024;28;20040;-43
2022/11/26 07:27:27;;;;;;;4.65;1.08;;;;;;;;;;5071370;28;20029;-43
2022/11/26 07:29:53;;;;;;;3.15;1.08;;;;;;;;;;5072089;28;20033;-43
2022/11/26 07:32:19;;;;;;;3.25;1.10;;;;;;;;;;5071220;28;20022;-43
2022/11/26 07:34:45;;;;;;;2.38;1.00;;;;;;;;;;5071156;28;20043;-43
2022/11/26 07:37:11;;;;;;;1.50;0.85;;;;;;;;;;5070401;28;20025;-44
2022/11/26 07:39:37;;;;;;;2.30;0.90;;;;;;;;;;5061088;28;20791;-41
2022/11/26 07:42:03;;;;;;;2.47;0.82;;;;;;;;;;5064903;28;20033;-43
2022/11/26 07:44:29;;;;;;;1.90;1.00;;;;;;;;;;5062706;28;20063;-43
2022/11/26 07:46:55;;;;;;;1.50;1.10;;;;;;;;;;5066712;28;20477;-43
2022/11/26 07:49:21;;;;;;;2.45;1.25;;;;;;;;;;5058603;28;20149;-46
2022/11/26 07:51:47;;;;;;;2.80;1.10;;;;;;;;;;5067606;28;20111;-43
2022/11/26 07:54:13;;;;;;;4.93;1.63;;;;;;;;;;5065647;28;20033;-44
2022/11/26 07:56:39;;;;;;;7.05;1.67;;;;;;;;;;5067742;28;20433;-43
2022/11/26 07:59:05;;;;;;;3.10;1.10;;;;;;;;;;5063471;28;20028;-43
2022/11/26 08:01:31;;;;;;;2.38;1.15;;;;;;;;;;5065339;28;20127;-43
2022/11/26 08:03:59;;;;;;;5.20;1.60;;;;;;;;;;5065326;28;20025;-44
2022/11/26 08:06:26;;;;;;;2.78;1.67;;;;;;;;;;5064054;28;20032;-43
2022/11/26 08:08:52;;;;;;;5.30;1.33;;;;;;;;;;5070579;28;20397;-47
2022/11/26 08:11:26;;;;;;;2.88;1.60;;;;;;;;;;5057694;28;20055;-44
2022/11/26 08:13:53;;;;;;;2.22;1.35;;;;;;;;;;5070166;28;20040;-43
2022/11/26 08:16:19;;;;;;;7.38;1.17;;;;;;;;;;5066273;28;20028;-44
2022/11/26 08:18:45;;;;;;;3.35;1.20;;;;;;;;;;5071254;28;20105;-44
2022/11/26 08:21:11;;;;;;;2.95;1.17;;;;;;;;;;5064510;27;20068;-43
2022/11/26 08:23:37;;;;;;;22.48;3.45;;;;;;;;;;5053029;28;20496;-46
2022/11/26 08:26:11;;;;;;;2.30;1.15;;;;;;;;;;5061435;28;20133;-43
2022/11/26 08:28:37;;;;;;;2.47;1.45;;;;;;;;;;5066901;28;20484;-43
2022/11/26 08:31:04;;;;;;;2.78;1.30;;;;;;;;;;5061460;28;20041;-43
2022/11/26 08:33:31;;;;;;;2.72;1.30;;;;;;;;;;5067901;28;20535;-44
2022/11/26 08:35:57;;;;;;;2.00;1.15;;;;;;;;;;5063978;28;20056;-43
2022/11/26 08:38:23;;;;;;;4.05;1.45;;;;;;;;;;5068497;28;20028;-45
2022/11/26 08:40:50;;;;;;;2.28;1.20;;;;;;;;;;5055544;28;20474;-43
2022/11/26 08:43:16;;;;;;;5.60;1.30;;;;;;;;;;5061210;28;20025;-46
2022/11/26 08:45:42;;;;;;;2.65;1.00;;;;;;;;;;5052603;28;20052;-44
2022/11/26 08:48:08;;;;;;;3.42;1.83;;;;;;;;;;5056383;28;20053;-42
2022/11/26 08:50:34;;;;;;;3.83;1.50;;;;;;;;;;5061567;28;20045;-44
2022/11/26 08:53:00;;;;;;;2.25;1.42;;;;;;;;;;5060180;28;20025;-43
2022/11/26 08:55:26;;;;;;;5.32;1.73;;;;;;;;;;5055375;28;20413;-43
2022/11/26 08:57:52;;;;;;;3.75;1.38;;;;;;;;;;5061051;28;20051;-45
2022/11/26 09:00:18;;;;;;;3.30;1.30;;;;;;;;;;5053333;28;20025;-47
2022/11/26 09:02:44;;;;;;;3.25;1.90;;;;;;;;;;5063559;28;20044;-46
2022/11/26 09:05:10;;;;;;;4.32;1.38;;;;;;;;;;5056911;28;20131;-44
2022/11/26 09:07:36;;;;;;;5.68;1.80;;;;;;;;;;5064297;28;20029;-42
2022/11/26 09:10:02;;;;;;;4.35;1.52;;;;;;;;;;5060882;28;20027;-44
2022/11/26 09:12:28;;;;;;;2.53;1.45;;;;;;;;;;5067859;28;20048;-44
2022/11/26 09:14:54;;;;;;;3.65;1.40;;;;;;;;;;5057240;28;20128;-44
2022/11/26 09:17:21;;;;;;;2.70;1.38;;;;;;;;;;5062403;28;20082;-45
2022/11/26 09:19:47;;;;;;;2.72;1.30;;;;;;;;;;5064672;28;20020;-44
2022/11/26 09:22:13;;;;;;;5.57;1.25;;;;;;;;;;5069377;28;20044;-44
2022/11/26 09:24:39;;;;;;;3.03;1.40;;;;;;;;;;5062353;28;20028;-44
2022/11/26 09:27:05;;;;;;;2.47;1.30;;;;;;;;;;5069840;28;20394;-44
2022/11/26 09:29:31;;;;;;;3.53;1.35;;;;;;;;;;5067380;28;20028;-43
2022/11/26 09:31:57;;;;;;;7.38;1.90;;;;;;;;;;5071235;28;20041;-44
2022/11/26 09:34:23;;;;;;;3.47;1.20;;;;;;;;;;5071991;28;20036;-42
2022/11/26 09:36:49;;;;;;;8.68;1.58;;;;;;;;;;5070550;28;20032;-44
2022/11/26 09:39:15;;;;;;;3.85;1.50;;;;;;;;;;5071358;28;20033;-47
2022/11/26 09:41:47;;;;;;;2.60;1.50;;;;;;;;;;5074569;28;20036;-44
2022/11/26 09:44:13;;;;;;;4.35;1.90;;;;;;;;;;5071873;28;20480;-46
2022/11/26 09:46:51;;;;;;;3.38;1.27;;;;;;;;;;5072134;28;20044;-44
2022/11/26 09:49:17;;;;;;;6.90;4.28;;;;;;;;;;5070473;28;20049;-47
2022/11/26 09:51:45;;;;;;;26.08;13.38;;;;;;;;;;5077135;28;20040;-44
2022/11/26 09:54:16;;;;;;;22.58;12.35;;;;;;;;;;5072158;28;20033;-44
2022/11/26 09:56:42;;;;;;;21.98;12.23;;;;;;;;;;5067497;28;20047;-44
2022/11/26 09:59:11;;;;;;;24.60;14.18;;;;;;;;;;5071184;28;20029;-44
2022/11/26 10:01:37;;;;;;;131.75;61.30;;;;;;;;;;5077712;28;20875;-44
2022/11/26 10:04:06;;;;;;;136.20;65.28;;;;;;;;;;5072540;28;20104;-44
2022/11/26 10:06:35;;;;;;;131.05;63.28;;;;;;;;;;5072607;28;20452;-44
2022/11/26 10:09:01;;;;;;;121.45;59.78;;;;;;;;;;5072614;28;20542;-43
2022/11/26 10:11:36;;;;;;;118.18;60.20;;;;;;;;;;5068547;28;20365;-46
2022/11/26 10:14:14;;;;;;;110.47;53.05;;;;;;;;;;5069920;28;20160;-44
2022/11/26 10:16:40;;;;;;;114.88;52.20;;;;;;;;;;5068053;28;20041;-45
2022/11/26 10:19:23;;;;;;;109.05;51.25;;;;;;;;;;5069486;28;20028;-44
2022/11/26 10:21:52;;;;;;;104.55;49.08;;;;;;;;;;5072222;28;20044;-44
2022/11/26 10:24:40;;;;;;;95.95;45.95;;;;;;;;;;5067284;28;20047;-47
2022/11/26 10:27:12;;;;;;;91.53;44.55;;;;;;;;;;5064930;28;20040;-44
2022/11/26 10:29:41;;;;;;;83.43;43.00;;;;;;;;;;5066539;28;20103;-43
2022/11/26 10:32:15;;;;;;;89.88;43.50;;;;;;;;;;5067286;28;20044;-42
2022/11/26 10:34:49;;;;;;;79.72;41.10;;;;;;;;;;5067747;28;20095;-43
2022/11/26 10:37:16;;;;;;;78.40;38.42;;;;;;;;;;5074084;28;20397;-46
2022/11/26 10:39:42;;;;;;;77.47;36.85;;;;;;;;;;5070113;28;20035;-43
2022/11/26 10:42:14;;;;;;;71.18;35.85;;;;;;;;;;5070279;28;20037;-43
2022/11/26 10:44:40;;;;;;;66.60;32.58;;;;;;;;;;5065477;28;20047;-40
2022/11/26 10:47:20;;;;;;;69.63;32.80;;;;;;;;;;5071261;28;20096;-43
2022/11/26 10:49:46;;;;;;;64.25;33.10;;;;;;;;;;5052740;28;20037;-45
2022/11/26 10:52:14;;;;;;;54.03;28.77;;;;;;;;;;5066977;28;20044;-44
2022/11/26 10:54:40;;;;;;;57.60;27.85;;;;;;;;;;5071195;28;20024;-43
2022/11/26 10:57:09;;;;;;;53.95;28.10;;;;;;;;;;5075161;28;20028;-42
2022/11/26 10:59:52;;;;;;;60.30;27.67;;;;;;;;;;5068583;28;20016;-44
2022/11/26 11:02:39;;;;;;;55.22;26.33;;;;;;;;;;5074326;28;20048;-46
2022/11/26 11:05:08;;;;;;;51.47;27.73;;;;;;;;;;5059197;28;20082;-42
2022/11/26 11:07:35;;;;;;;55.67;27.40;;;;;;;;;;5068956;28;20120;-43
2022/11/26 11:10:12;;;;;;;45.80;21.92;;;;;;;;;;5072607;28;20056;-44
2022/11/26 11:12:39;;;;;;;46.53;23.00;;;;;;;;;;5056851;28;20029;-43
2022/11/26 11:15:18;;;;;;;47.40;23.15;;;;;;;;;;5069529;28;20074;-44
2022/11/26 11:17:45;;;;;;;37.90;20.63;;;;;;;;;;5084369;28;20016;-43
2022/11/26 11:20:14;;;;;;;40.67;19.73;;;;;;;;;;5073227;28;20409;-44
2022/11/26 11:22:40;;;;;;;34.45;17.70;;;;;;;;;;5065464;28;20049;-43
2022/11/26 11:25:06;;;;;;;31.25;16.70;;;;;;;;;;5070013;28;20441;-43
2022/11/26 11:27:45;;;;;;;34.38;17.90;;;;;;;;;;5072322;28;20111;-45
2022/11/26 11:30:29;;;;;;;32.17;14.18;;;;;;;;;;5073484;28;20100;-43
2022/11/26 11:32:56;;;;;;;31.85;16.17;;;;;;;;;;5060275;28;20025;-43
2022/11/26 11:35:24;;;;;;;31.02;15.07;;;;;;;;;;5071617;28;20095;-43
2022/11/26 11:37:54;;;;;;;30.55;14.20;;;;;;;;;;5073164;28;20470;-44
2022/11/26 11:40:27;;;;;;;28.13;14.25;;;;;;;;;;5071814;28;20025;-43
2022/11/26 11:42:56;;;;;;;25.45;13.48;;;;;;;;;;5072050;28;20028;-44
2022/11/26 11:45:28;;;;;;;27.88;13.68;;;;;;;;;;5071935;28;20028;-44
2022/11/26 11:47:55;;;;;;;;;;;;;;;;;;5069897;28;20020;-44
2022/11/26 11:50:21;;;;;;;27.17;13.93;;;;;;;;;;5073522;28;19905;-44
2022/11/26 11:52:50;;;;;;;27.80;13.55;;;;;;;;;;5070611;28;20024;-43
2022/11/26 11:55:40;;;;;;;25.70;12.88;;;;;;;;;;5072209;28;20047;-47
2022/11/26 11:58:11;;;;;;;24.40;11.80;;;;;;;;;;5064407;28;20052;-43
2022/11/26 12:00:37;;;;;;;34.20;13.40;;;;;;;;;;5071205;28;20055;-44
2022/11/26 12:03:15;;;;;;;25.88;11.90;;;;;;;;;;5071238;28;20064;-43
2022/11/26 12:05:41;;;;;;;21.98;10.45;;;;;;;;;;5073808;28;20036;-43
2022/11/26 12:08:13;;;;;;;24.77;11.40;;;;;;;;;;5072816;28;20021;-44
2022/11/26 12:10:38;;;;;;;;;;;;;;;;;;5071607;28;20122;-43
2022/11/26 12:13:05;;;;;;;20.40;10.75;;;;;;;;;;5064494;28;19967;-45
2022/11/26 12:15:53;;;;;;;23.20;11.77;;;;;;;;;;5071731;28;20378;-43
2022/11/26 12:18:25;;;;;;;23.27;10.80;;;;;;;;;;5071489;28;20021;-44
2022/11/26 12:20:56;;;;;;;19.65;9.98;;;;;;;;;;5063395;28;20025;-43
2022/11/26 12:23:26;;;;;;;24.10;10.25;;;;;;;;;;5067577;27;20080;-44
2022/11/26 12:25:55;;;;;;;17.85;9.18;;;;;;;;;;5071604;28;20404;-43
2022/11/26 12:28:21;;;;;;;23.13;10.15;;;;;;;;;;5071187;28;20432;-44
2022/11/26 12:30:47;;;;;;;20.40;9.60;;;;;;;;;;5071519;28;20021;-44
2022/11/26 12:33:16;;;;;;;20.85;9.23;;;;;;;;;;5070456;28;20059;-44
2022/11/26 12:35:48;;;;;;;19.95;8.95;;;;;;;;;;5054979;28;21354;-43
2022/11/26 12:38:18;;;;;;;11.90;7.93;;;;;;;;;;5068782;28;20134;-46
2022/11/26 12:40:47;;;;;;;17.65;9.13;;;;;;;;;;5063537;28;20085;-43
2022/11/26 12:43:25;;;;;;;17.35;8.52;;;;;;;;;;5059974;28;20058;-43
2022/11/26 12:46:02;;;;;;;17.45;9.18;;;;;;;;;;5069866;28;20056;-43
2022/11/26 12:48:40;;;;;;;19.55;8.98;;;;;;;;;;5066917;28;20566;-44
2022/11/26 12:51:21;;;;;;;16.35;8.50;;;;;;;;;;5067773;28;20012;-43
2022/11/26 12:53:50;;;;;;;14.98;7.88;;;;;;;;;;5063062;28;20095;-44
2022/11/26 12:56:25;;;;;;;18.20;9.43;;;;;;;;;;5072155;28;20722;-47
2022/11/26 12:59:10;;;;;;;16.35;8.07;;;;;;;;;;5064357;28;20043;-43
2022/11/26 13:01:36;;;;;;;18.13;8.68;;;;;;;;;;5064944;28;20020;-43
2022/11/26 13:04:02;;;;;;;11.73;6.97;;;;;;;;;;5057583;28;20032;-43
2022/11/26 13:06:28;;;;;;;16.35;7.57;;;;;;;;;;5065050;28;20033;-44
2022/11/26 13:09:12;;;;;;;15.13;7.50;;;;;;;;;;5061922;28;20094;-44
2022/11/26 13:11:57;;;;;;;17.98;8.07;;;;;;;;;;5067163;28;20032;-43
2022/11/26 13:14:22;;;;;;;16.52;7.40;;;;;;;;;;5058560;28;20116;-43
2022/11/26 13:17:03;;;;;;;12.57;6.72;;;;;;;;;;5072093;28;20104;-43
2022/11/26 13:19:32;;;;;;;12.80;6.97;;;;;;;;;;5057378;28;20037;-43
2022/11/26 13:21:58;;;;;;;16.38;7.35;;;;;;;;;;5065279;28;20100;-43
2022/11/26 13:24:33;;;;;;;13.77;7.03;;;;;;;;;;5047171;28;20044;-43
2022/11/26 13:27:14;;;;;;;12.48;6.90;;;;;;;;;;5050384;28;20052;-42
2022/11/26 13:29:51;;;;;;;12.55;6.22;;;;;;;;;;5048139;28;20099;-44
2022/11/26 13:32:35;;;;;;;13.18;6.18;;;;;;;;;;5050229;28;20423;-41
2022/11/26 13:35:21;;;;;;;12.60;5.68;;;;;;;;;;5042531;28;20045;-39
2022/11/26 13:38:12;;;;;;;12.30;6.85;;;;;;;;;;5050630;28;20026;-43
2022/11/26 13:40:47;;;;;;;12.98;6.15;;;;;;;;;;5048460;28;20044;-43
2022/11/26 13:43:15;;;;;;;10.88;6.28;;;;;;;;;;5039531;28;20040;-46
2022/11/26 13:45:50;;;;;;;10.05;5.82;;;;;;;;;;5049291;28;20091;-43
2022/11/26 13:48:20;;;;;;;11.93;5.97;;;;;;;;;;5041878;28;20027;-46
2022/11/26 13:50:49;;;;;;;11.52;5.30;;;;;;;;;;5044628;28;20390;-43
2022/11/26 13:53:27;;;;;;;11.88;6.13;;;;;;;;;;5046952;28;20021;-46
2022/11/26 13:55:55;;;;;;;12.95;6.25;;;;;;;;;;5045534;28;20044;-44
2022/11/26 13:58:28;;;;;;;14.02;6.22;;;;;;;;;;5051423;28;20125;-44
2022/11/26 14:00:54;;;;;;;8.52;5.20;;;;;;;;;;5049934;28;20033;-43
2022/11/26 14:03:39;;;;;;;10.77;5.25;;;;;;;;;;5043034;28;20017;-44
2022/11/26 14:06:06;;;;;;;12.00;5.18;;;;;;;;;;5048059;28;20549;-43
2022/11/26 14:08:34;;;;;;;10.73;5.45;;;;;;;;;;5045151;28;20026;-43
2022/11/26 14:11:00;;;;;;;8.95;4.72;;;;;;;;;;5041455;28;20029;-43
2022/11/26 14:13:26;;;;;;;8.63;4.50;;;;;;;;;;5044610;28;20017;-43
2022/11/26 14:15:52;;;;;;;9.10;4.13;;;;;;;;;;5040938;28;20144;-43
2022/11/26 14:18:38;;;;;;;11.63;4.65;;;;;;;;;;5046481;28;20095;-46
2022/11/26 14:21:11;;;;;;;10.23;4.95;;;;;;;;;;5042710;28;20061;-43
2022/11/26 14:23:41;;;;;;;11.27;5.93;;;;;;;;;;5046929;27;20518;-43
2022/11/26 14:26:10;;;;;;;9.02;4.70;;;;;;;;;;5043811;28;20045;-44
2022/11/26 14:28:36;;;;;;;11.18;4.90;;;;;;;;;;5049413;28;20610;-43
2022/11/26 14:31:29;;;;;;;11.80;5.15;;;;;;;;;;5053345;28;20032;-43
2022/11/26 14:33:58;;;;;;;9.30;5.18;;;;;;;;;;5046517;28;20029;-43
2022/11/26 14:36:26;;;;;;;10.77;4.78;;;;;;;;;;5052134;28;20047;-43
2022/11/26 14:39:11;;;;;;;10.05;5.38;;;;;;;;;;5050829;28;20021;-43
2022/11/26 14:41:42;;;;;;;6.97;4.82;;;;;;;;;;5057304;28;20597;-43
2022/11/26 14:44:13;;;;;;;8.80;4.38;;;;;;;;;;5036356;28;20021;-43
2022/11/26 14:46:40;;;;;;;8.02;4.30;;;;;;;;;;5047598;28;20045;-42
2022/11/26 14:49:26;;;;;;;7.95;4.15;;;;;;;;;;5044780;28;20094;-43
2022/11/26 14:51:53;;;;;;;7.90;4.40;;;;;;;;;;5051022;28;20048;-43
2022/11/26 14:54:22;;;;;;;7.13;4.38;;;;;;;;;;5052048;28;20104;-44